Time;durP1;ratioP1;P1;durP2;ratioP2;P2;SDS_P1;SDS_P2;PMS_P1;PMS_P2;Temp;Humidity;BMP_temperature;BMP_pressure;BME280_temperature;BME280_humidity;BME280_pressure;Samples;Min_cycle;Max_cycle;Signal;HPM_P1;HPM_P2
2023/04/02 00:02:00;;;;;;;;;;;;;;;;;;5000750;28;19925;-72
2023/04/02 00:04:28;;;;;;;;;;;;;;;;;;4998333;28;19924;-73
2023/04/02 00:06:54;;;;;;;;;;;;;;;;;;4998907;28;19927;-72
2023/04/02 00:09:20;;;;;;;;;;;;;;;;;;4998334;28;19917;-73
2023/04/02 00:11:45;;;;;;;;;;;;;;;;;;5001102;28;19921;-69
2023/04/02 00:14:13;;;;;;;;;;;;;;;;;;4997747;28;19921;-71
2023/04/02 00:16:39;;;;;;;;;;;;;;;;;;5000889;28;19972;-74
2023/04/02 00:19:04;;;;;;;;;;;;;;;;;;4997913;28;19935;-75
2023/04/02 00:21:30;;;;;;;;;;;;;;;;;;5032064;28;19936;-72
2023/04/02 00:23:55;;;;;;;;;;;;;;;;;;4998415;28;19952;-73
2023/04/02 00:26:20;;;;;;;;;;;;;;;;;;4997891;28;20557;-73
2023/04/02 00:28:46;;;;;;;;;;;;;;;;;;5001731;28;19931;-75
2023/04/02 00:31:11;;;;;;;;;;;;;;;;;;5003118;28;20477;-75
2023/04/02 00:36:35;;;;;;;;;;;;;;;;;;5033197;28;19933;-72
2023/04/02 00:39:00;;;;;;;;;;;;;;;;;;4997493;28;19917;-72
2023/04/02 00:41:28;;;;;;;;;;;;;;;;;;4998621;28;20535;-72
2023/04/02 00:43:56;;;;;;;;;;;;;;;;;;4998934;28;19917;-72
2023/04/02 00:46:22;;;;;;;;;;;;;;;;;;4996460;28;20171;-72
2023/04/02 00:48:48;;;;;;;;;;;;;;;;;;5001056;28;20442;-72
2023/04/02 00:51:13;;;;;;;;;;;;;;;;;;4986181;28;20404;-73
2023/04/02 00:53:38;;;;;;;;;;;;;;;;;;5003595;28;19967;-74
2023/04/02 00:56:04;;;;;;;;;;;;;;;;;;4999772;28;19971;-73
2023/04/02 00:58:29;;;;;;;;;;;;;;;;;;5001199;28;19927;-72
2023/04/02 01:00:55;;;;;;;;;;;;;;;;;;5033428;28;19921;-73
2023/04/02 01:03:27;;;;;;;;;;;;;;;;;;5002566;28;19925;-72
2023/04/02 01:05:52;;;;;;;;;;;;;;;;;;5014103;28;19968;-73
2023/04/02 01:08:18;;;;;;;;;;;;;;;;;;5003122;28;20402;-73
2023/04/02 01:10:43;;;;;;;;;;;;;;;;;;4999623;28;19971;-71
2023/04/02 01:13:08;;;;;;;;;;;;;;;;;;5002879;28;20011;-73
2023/04/02 01:15:34;;;;;;;;;;;;;;;;;;5002977;28;19971;-73
2023/04/02 01:17:59;;;;;;;;;;;;;;;;;;5033565;28;20867;-73
2023/04/02 01:20:24;;;;;;;;;;;;;;;;;;5002279;28;19927;-72
2023/04/02 01:22:50;;;;;;;;;;;;;;;;;;4998734;28;20572;-71
2023/04/02 01:25:16;;;;;;;;;;;;;;;;;;4997044;28;19928;-74
2023/04/02 01:31:01;;;;;;;;;;;;;;;;;;4999952;28;20023;-74
2023/04/02 01:33:26;;;;;;;;;;;;;;;;;;4983692;28;20412;-73
2023/04/02 01:35:51;;;;;;;;;;;;;;;;;;5003783;28;19921;-74
2023/04/02 01:38:18;;;;;;;;;;;;;;;;;;5001942;28;19970;-75
2023/04/02 01:40:43;;;;;;;;;;;;;;;;;;5002728;28;19929;-75
2023/04/02 01:43:08;;;;;;;;;;;;;;;;;;5004137;28;19917;-73
2023/04/02 01:45:34;;;;;;;;;;;;;;;;;;5002794;28;19933;-74
2023/04/02 01:47:59;;;;;;;;;;;;;;;;;;5002049;28;20746;-73
2023/04/02 01:50:24;;;;;;;;;;;;;;;;;;5000920;28;20475;-72
2023/04/02 01:52:50;;;;;;;;;;;;;;;;;;4999285;28;20548;-72
2023/04/02 01:55:17;;;;;;;;;;;;;;;;;;5003069;28;20400;-73
2023/04/02 01:57:43;;;;;;;;;;;;;;;;;;4982981;28;19928;-76
2023/04/02 02:00:11;;;;;;;;;;;;;;;;;;5001482;28;20012;-72
2023/04/02 02:02:37;;;;;;;;;;;;;;;;;;4984711;28;20368;-73
2023/04/02 02:05:02;;;;;;;;;;;;;;;;;;5013318;28;19945;-72
2023/04/02 02:07:28;;;;;;;;;;;;;;;;;;5034641;28;19921;-73
2023/04/02 02:09:53;;;;;;;;;;;;;;;;;;5014667;28;20055;-73
2023/04/02 02:12:18;;;;;;;;;;;;;;;;;;5000555;28;19960;-73
2023/04/02 02:14:43;;;;;;;;;;;;;;;;;;5031209;28;20470;-72
2023/04/02 02:17:12;;;;;;;;;;;;;;;;;;5000637;28;19924;-72
2023/04/02 02:19:37;;;;;;;;;;;;;;;;;;4999633;28;19917;-72
2023/04/02 02:22:02;;;;;;;;;;;;;;;;;;5013924;28;20064;-72
2023/04/02 02:24:29;;;;;;;;;;;;;;;;;;5000494;28;20229;-72
2023/04/02 02:26:57;;;;;;;;;;;;;;;;;;5015596;28;19921;-72
2023/04/02 02:29:22;;;;;;;;;;;;;;;;;;5002610;28;19931;-72
2023/04/02 02:31:47;;;;;;;;;;;;;;;;;;4998448;28;19921;-71
2023/04/02 02:34:13;;;;;;;;;;;;;;;;;;4999031;28;20379;-72
2023/04/02 02:36:38;;;;;;;;;;;;;;;;;;5014530;28;20365;-73
2023/04/02 02:39:06;;;;;;;;;;;;;;;;;;4998248;28;19925;-73
2023/04/02 02:41:31;;;;;;;;;;;;;;;;;;5018380;28;19957;-71
2023/04/02 02:43:57;;;;;;;;;;;;;;;;;;4999799;28;19932;-74
2023/04/02 02:46:22;;;;;;;;;;;;;;;;;;4998726;28;21459;-72
2023/04/02 02:48:48;;;;;;;;;;;;;;;;;;5031381;28;20320;-72
2023/04/02 02:51:13;;;;;;;;;;;;;;;;;;5001513;28;20122;-72
2023/04/02 02:53:39;;;;;;;;;;;;;;;;;;5031381;28;20060;-72
2023/04/02 02:56:06;;;;;;;;;;;;;;;;;;4998902;28;19921;-72
2023/04/02 02:58:31;;;;;;;;;;;;;;;;;;5000620;28;19928;-71
2023/04/02 03:00:57;;;;;;;;;;;;;;;;;;5000572;28;20568;-71
2023/04/02 03:03:22;;;;;;;;;;;;;;;;;;5000042;28;19967;-71
2023/04/02 03:05:48;;;;;;;;;;;;;;;;;;4997239;28;19921;-72
2023/04/02 03:08:13;;;;;;;;;;;;;;;;;;5001528;28;20011;-71
2023/04/02 03:10:39;;;;;;;;;;;;;;;;;;4983203;28;20202;-70
2023/04/02 03:13:05;;;;;;;;;;;;;;;;;;4999131;28;20268;-70
2023/04/02 03:15:31;;;;;;;;;;;;;;;;;;5011371;28;20692;-70
2023/04/02 03:17:56;;;;;;;;;;;;;;;;;;4997016;28;19917;-70
2023/04/02 03:20:22;;;;;;;;;;;;;;;;;;4982715;28;20626;-70
2023/04/02 03:22:47;;;;;;;;;;;;;;;;;;4999243;28;19924;-71
2023/04/02 03:25:12;;;;;;;;;;;;;;;;;;5001181;28;19952;-71
2023/04/02 03:27:38;;;;;;;;;;;;;;;;;;4998063;28;19921;-72
2023/04/02 03:30:04;;;;;;;;;;;;;;;;;;5032584;28;20045;-69
2023/04/02 03:32:29;;;;;;;;;;;;;;;;;;5001452;28;19975;-70
2023/04/02 03:34:55;;;;;;;;;;;;;;;;;;4994931;28;20360;-71
2023/04/02 03:37:20;;;;;;;;;;;;;;;;;;4998725;28;19982;-71
2023/04/02 03:39:45;;;;;;;;;;;;;;;;;;4999596;28;19917;-69
2023/04/02 03:42:11;;;;;;;;;;;;;;;;;;5001361;28;20043;-72
2023/04/02 03:44:36;;;;;;;;;;;;;;;;;;5019909;28;20011;-70
2023/04/02 03:47:04;;;;;;;;;;;;;;;;;;5018670;28;19920;-70
2023/04/02 03:49:30;;;;;;;;;;;;;;;;;;4999627;28;19970;-68
2023/04/02 03:51:55;;;;;;;;;;;;;;;;;;5019997;28;19925;-71
2023/04/02 03:54:20;;;;;;;;;;;;;;;;;;5019095;28;20473;-70
2023/04/02 03:56:46;;;;;;;;;;;;;;;;;;4997505;28;19916;-71
2023/04/02 03:59:12;;;;;;;;;;;;;;;;;;5020096;28;19987;-69
2023/04/02 04:01:37;;;;;;;;;;;;;;;;;;5030701;28;19921;-69
2023/04/02 04:04:03;;;;;;;;;;;;;;;;;;5018245;28;19960;-71
2023/04/02 04:06:28;;;;;;;;;;;;;;;;;;5001108;28;19917;-69
2023/04/02 04:08:56;;;;;;;;;;;;;;;;;;5002186;28;19921;-70
2023/04/02 04:11:23;;;;;;;;;;;;;;;;;;4987844;28;19927;-67
2023/04/02 04:13:48;;;;;;;;;;;;;;;;;;5032127;28;20015;-69
2023/04/02 04:16:14;;;;;;;;;;;;;;;;;;5021081;28;19927;-69
2023/04/02 04:18:40;;;;;;;;;;;;;;;;;;5032241;28;19921;-68
2023/04/02 04:21:10;;;;;;;;;;;;;;;;;;4999465;28;19932;-69
2023/04/02 04:23:35;;;;;;;;;;;;;;;;;;5005253;28;19960;-68
2023/04/02 04:26:08;;;;;;;;;;;;;;;;;;5024480;28;20384;-70
2023/04/02 04:28:37;;;;;;;;;;;;;;;;;;5022383;28;19921;-68
2023/04/02 04:31:02;;;;;;;;;;;;;;;;;;4998626;28;20380;-70
2023/04/02 04:33:33;;;;;;;;;;;;;;;;;;5004111;28;19933;-70
2023/04/02 04:35:58;;;;;;;;;;;;;;;;;;5022721;28;20931;-69
2023/04/02 04:38:26;;;;;;;;;;;;;;;;;;5023468;28;20262;-69
2023/04/02 04:40:52;;;;;;;;;;;;;;;;;;5006285;28;19928;-69
2023/04/02 04:43:18;;;;;;;;;;;;;;;;;;4988835;28;20196;-70
2023/04/02 04:45:43;;;;;;;;;;;;;;;;;;5015558;28;20319;-67
2023/04/02 04:48:09;;;;;;;;;;;;;;;;;;5021049;28;20015;-71
2023/04/02 04:50:34;;;;;;;;;;;;;;;;;;5021155;28;20051;-69
2023/04/02 04:52:59;;;;;;;;;;;;;;;;;;4983918;28;19931;-70
2023/04/02 04:55:25;;;;;;;;;;;;;;;;;;5006261;28;20019;-70
2023/04/02 04:57:50;;;;;;;;;;;;;;;;;;5004124;28;20373;-70
2023/04/02 05:00:19;;;;;;;;;;;;;;;;;;5000931;28;20015;-70
2023/04/02 05:02:44;;;;;;;;;;;;;;;;;;5006805;28;19980;-69
2023/04/02 05:05:11;;;;;;;;;;;;;;;;;;5000241;28;20387;-69
2023/04/02 05:07:36;;;;;;;;;;;;;;;;;;4987562;28;20417;-69
2023/04/02 05:10:02;;;;;;;;;;;;;;;;;;4997917;28;19920;-71
2023/04/02 05:12:27;;;;;;;;;;;;;;;;;;5023275;28;19925;-70
2023/04/02 05:14:52;;;;;;;;;;;;;;;;;;5000409;28;19916;-69
2023/04/02 05:17:18;;;;;;;;;;;;;;;;;;4988374;28;20518;-70
2023/04/02 05:19:43;;;;;;;;;;;;;;;;;;5001125;28;19917;-70
2023/04/02 05:22:09;;;;;;;;;;;;;;;;;;5019471;28;20061;-68
2023/04/02 05:24:35;;;;;;;;;;;;;;;;;;5002365;28;20885;-70
2023/04/02 05:27:00;;;;;;;;;;;;;;;;;;4982055;28;20802;-72
2023/04/02 05:29:25;;;;;;;;;;;;;;;;;;5035028;28;19924;-72
2023/04/02 05:31:51;;;;;;;;;;;;;;;;;;5005849;28;19928;-69
2023/04/02 05:34:16;;;;;;;;;;;;;;;;;;5005091;28;20428;-72
2023/04/02 05:36:42;;;;;;;;;;;;;;;;;;5006537;28;20647;-71
2023/04/02 05:39:07;;;;;;;;;;;;;;;;;;5037996;28;19920;-72
2023/04/02 05:41:35;;;;;;;;;;;;;;;;;;5004191;28;19924;-67
2023/04/02 05:44:01;;;;;;;;;;;;;;;;;;5005097;28;19921;-69
2023/04/02 05:46:26;;;;;;;;;;;;;;;;;;4985875;28;20348;-67
2023/04/02 05:48:51;;;;;;;;;;;;;;;;;;5037889;28;21460;-68
2023/04/02 05:51:17;;;;;;;;;;;;;;;;;;5023295;28;20356;-69
2023/04/02 05:53:42;;;;;;;;;;;;;;;;;;5003658;28;19920;-72
2023/04/02 05:56:08;;;;;;;;;;;;;;;;;;5036491;28;19939;-70
2023/04/02 05:58:33;;;;;;;;;;;;;;;;;;5017962;28;19998;-71
2023/04/02 06:01:00;;;;;;;;;;;;;;;;;;5003006;28;19925;-70
2023/04/02 06:03:26;;;;;;;;;;;;;;;;;;5003301;28;20247;-70
2023/04/02 06:05:51;;;;;;;;;;;;;;;;;;4986498;28;19921;-69
2023/04/02 06:08:19;;;;;;;;;;;;;;;;;;4987216;28;19916;-71
2023/04/02 06:10:45;;;;;;;;;;;;;;;;;;5019980;28;19999;-71
2023/04/02 06:13:10;;;;;;;;;;;;;;;;;;5004197;28;19994;-71
2023/04/02 06:15:36;;;;;;;;;;;;;;;;;;5004489;28;20437;-70
2023/04/02 06:18:01;;;;;;;;;;;;;;;;;;5003435;28;19928;-71
2023/04/02 06:20:29;;;;;;;;;;;;;;;;;;5018301;28;20131;-70
2023/04/02 06:22:55;;;;;;;;;;;;;;;;;;5004352;28;20372;-71
2023/04/02 06:25:20;;;;;;;;;;;;;;;;;;5023813;28;19921;-72
2023/04/02 06:27:45;;;;;;;;;;;;;;;;;;5001110;28;20793;-70
2023/04/02 06:30:11;;;;;;;;;;;;;;;;;;5000131;28;19921;-70
2023/04/02 06:32:36;;;;;;;;;;;;;;;;;;5000701;28;19975;-70
2023/04/02 06:35:02;;;;;;;;;;;;;;;;;;5001280;28;19920;-71
2023/04/02 06:37:27;;;;;;;;;;;;;;;;;;5021297;28;19921;-70
2023/04/02 06:39:53;;;;;;;;;;;;;;;;;;5020047;28;20255;-71
2023/04/02 06:42:18;;;;;;;;;;;;;;;;;;5021186;28;19960;-68
2023/04/02 06:44:44;;;;;;;;;;;;;;;;;;4985223;28;20368;-71
2023/04/02 06:47:09;;;;;;;;;;;;;;;;;;5003613;28;19929;-71
2023/04/02 06:49:35;;;;;;;;;;;;;;;;;;5019893;28;19916;-71
2023/04/02 06:52:00;;;;;;;;;;;;;;;;;;4981959;28;20124;-73
2023/04/02 06:54:26;;;;;;;;;;;;;;;;;;5003803;28;19916;-71
2023/04/02 06:56:52;;;;;;;;;;;;;;;;;;5000765;28;19920;-72
2023/04/02 06:59:18;;;;;;;;;;;;;;;;;;5003413;28;20183;-72
2023/04/02 07:01:43;;;;;;;;;;;;;;;;;;5017321;28;20486;-73
2023/04/02 07:04:08;;;;;;;;;;;;;;;;;;5000088;28;19917;-73
2023/04/02 07:06:34;;;;;;;;;;;;;;;;;;5002829;28;20706;-71
2023/04/02 07:08:59;;;;;;;;;;;;;;;;;;5015628;28;20372;-71
2023/04/02 07:11:27;;;;;;;;;;;;;;;;;;4988335;28;19966;-70
2023/04/02 07:13:53;;;;;;;;;;;;;;;;;;5019779;28;20002;-69
2023/04/02 07:16:19;;;;;;;;;;;;;;;;;;5021032;28;20125;-71
2023/04/02 07:18:44;;;;;;;;;;;;;;;;;;5018159;28;19917;-69
2023/04/02 07:21:10;;;;;;;;;;;;;;;;;;4995407;28;19935;-69
2023/04/02 07:23:36;;;;;;;;;;;;;;;;;;4985597;28;20191;-72
2023/04/02 07:26:01;;;;;;;;;;;;;;;;;;5021514;28;19994;-73
2023/04/02 07:28:48;;;;;;;;;;;;;;;;;;5004484;28;19921;-72
2023/04/02 07:31:13;;;;;;;;;;;;;;;;;;5000049;28;20170;-69
2023/04/02 07:33:38;;;;;;;;;;;;;;;;;;5000232;28;19921;-72
2023/04/02 07:36:04;;;;;;;;;;;;;;;;;;5033404;28;19920;-72
2023/04/02 07:38:29;;;;;;;;;;;;;;;;;;5020714;28;20443;-73
2023/04/02 07:40:55;;;;;;;;;;;;;;;;;;5035450;28;19924;-73
2023/04/02 07:43:20;;;;;;;;;;;;;;;;;;5001757;28;20152;-74
2023/04/02 07:45:46;;;;;;;;;;;;;;;;;;4982388;28;20470;-73
2023/04/02 07:48:14;;;;;;;;;;;;;;;;;;4989344;28;19924;-71
2023/04/02 07:50:42;;;;;;;;;;;;;;;;;;5003591;28;20459;-74
2023/04/02 07:53:07;;;;;;;;;;;;;;;;;;4985933;28;19917;-73
2023/04/02 07:55:33;;;;;;;;;;;;;;;;;;5022688;28;20855;-71
2023/04/02 07:57:58;;;;;;;;;;;;;;;;;;4990634;28;19962;-74
2023/04/02 08:00:24;;;;;;;;;;;;;;;;;;5005332;28;20067;-71
2023/04/02 08:02:49;;;;;;;;;;;;;;;;;;4993061;28;20016;-75
2023/04/02 08:05:15;;;;;;;;;;;;;;;;;;5023130;28;19928;-73
2023/04/02 08:07:40;;;;;;;;;;;;;;;;;;5041690;28;20384;-73
2023/04/02 08:10:06;;;;;;;;;;;;;;;;;;5026224;28;19917;-74
2023/04/02 08:12:31;;;;;;;;;;;;;;;;;;5008116;28;19921;-72
2023/04/02 08:14:57;;;;;;;;;;;;;;;;;;5025740;28;19921;-73
2023/04/02 08:17:32;;;;;;;;;;;;;;;;;;5004684;28;19924;-72
2023/04/02 08:20:00;;;;;;;;;;;;;;;;;;4999639;28;21423;-75
2023/04/02 08:22:26;;;;;;;;;;;;;;;;;;5005654;28;19925;-74
2023/04/02 08:24:52;;;;;;;;;;;;;;;;;;5023409;28;19973;-75
2023/04/02 08:27:20;;;;;;;;;;;;;;;;;;5001098;28;20391;-74
2023/04/02 08:29:47;;;;;;;;;;;;;;;;;;5039137;28;19917;-74
2023/04/02 08:32:15;;;;;;;;;;;;;;;;;;4985608;28;19917;-73
2023/04/02 08:34:40;;;;;;;;;;;;;;;;;;5037009;28;19968;-74
2023/04/02 08:37:06;;;;;;;;;;;;;;;;;;5004276;28;20023;-76
2023/04/02 08:39:34;;;;;;;;;;;;;;;;;;5035707;28;20554;-74
2023/04/02 08:41:59;;;;;;;;;;;;;;;;;;5006515;28;20376;-74
2023/04/02 08:44:24;;;;;;;;;;;;;;;;;;5023333;28;20591;-75
2023/04/02 08:46:50;;;;;;;;;;;;;;;;;;5024945;28;19928;-72
2023/04/02 08:49:16;;;;;;;;;;;;;;;;;;4991863;28;19917;-72
2023/04/02 08:51:41;;;;;;;;;;;;;;;;;;5019962;28;19928;-73
2023/04/02 08:54:07;;;;;;;;;;;;;;;;;;4998296;28;19916;-75
2023/04/02 08:56:33;;;;;;;;;;;;;;;;;;5020170;28;19992;-72
2023/04/02 08:58:58;;;;;;;;;;;;;;;;;;5000178;28;20510;-72
2023/04/02 09:01:23;;;;;;;;;;;;;;;;;;5032586;28;19964;-74
2023/04/02 09:03:50;;;;;;;;;;;;;;;;;;5017531;28;20262;-72
2023/04/02 09:06:15;;;;;;;;;;;;;;;;;;4993347;28;19932;-73
2023/04/02 09:08:41;;;;;;;;;;;;;;;;;;4996835;28;20383;-71
2023/04/02 09:11:06;;;;;;;;;;;;;;;;;;5029829;28;19964;-73
2023/04/02 09:13:31;;;;;;;;;;;;;;;;;;4989624;28;20027;-74
2023/04/02 09:15:57;;;;;;;;;;;;;;;;;;4982458;28;19927;-73
2023/04/02 09:18:23;;;;;;;;;;;;;;;;;;5003864;28;20303;-72
2023/04/02 09:20:49;;;;;;;;;;;;;;;;;;4982679;28;20123;-72
2023/04/02 09:23:15;;;;;;;;;;;;;;;;;;4987261;28;19924;-72
2023/04/02 09:25:40;;;;;;;;;;;;;;;;;;5005953;28;19962;-72
2023/04/02 09:28:06;;;;;;;;;;;;;;;;;;5005830;28;20614;-72
2023/04/02 09:30:31;;;;;;;;;;;;;;;;;;5024902;28;20360;-71
2023/04/02 09:33:01;;;;;;;;;;;;;;;;;;5002238;28;19927;-71
2023/04/02 09:35:27;;;;;;;;;;;;;;;;;;4987794;28;20006;-74
2023/04/02 09:37:53;;;;;;;;;;;;;;;;;;5001136;28;20015;-72
2023/04/02 09:40:18;;;;;;;;;;;;;;;;;;5004273;28;20319;-73
2023/04/02 09:42:44;;;;;;;;;;;;;;;;;;5007277;28;20291;-72
2023/04/02 09:45:11;;;;;;;;;;;;;;;;;;5021571;28;20153;-71
2023/04/02 09:47:37;;;;;;;;;;;;;;;;;;4991416;28;20215;-71
2023/04/02 09:50:02;;;;;;;;;;;;;;;;;;5004164;28;19916;-71
2023/04/02 09:52:27;;;;;;;;;;;;;;;;;;5003270;28;19959;-69
2023/04/02 09:54:55;;;;;;;;;;;;;;;;;;5006173;28;19967;-72
2023/04/02 09:57:23;;;;;;;;;;;;;;;;;;5001938;28;19917;-70
2023/04/02 09:59:51;;;;;;;;;;;;;;;;;;5005349;28;19921;-69
2023/04/02 10:02:19;;;;;;;;;;;;;;;;;;5005623;28;20380;-69
2023/04/02 10:04:46;;;;;;;;;;;;;;;;;;5022346;28;20014;-70
2023/04/02 10:07:11;;;;;;;;;;;;;;;;;;5003675;28;20567;-70
2023/04/02 10:09:39;;;;;;;;;;;;;;;;;;5019037;28;20080;-71
2023/04/02 10:12:05;;;;;;;;;;;;;;;;;;5005051;28;20125;-69
2023/04/02 10:14:33;;;;;;;;;;;;;;;;;;4988537;28;20308;-70
2023/04/02 10:16:58;;;;;;;;;;;;;;;;;;5023097;28;19963;-70
2023/04/02 10:19:23;;;;;;;;;;;;;;;;;;5020365;28;20011;-70
2023/04/02 10:21:49;;;;;;;;;;;;;;;;;;4984167;28;19925;-69
2023/04/02 10:24:14;;;;;;;;;;;;;;;;;;5019154;28;20450;-69
2023/04/02 10:26:42;;;;;;;;;;;;;;;;;;4987881;28;19920;-69
2023/04/02 10:29:07;;;;;;;;;;;;;;;;;;5023800;28;19916;-68
2023/04/02 10:31:33;;;;;;;;;;;;;;;;;;4987148;28;20007;-69
2023/04/02 10:34:01;;;;;;;;;;;;;;;;;;5022376;28;20405;-69
2023/04/02 10:36:29;;;;;;;;;;;;;;;;;;4999734;28;19928;-69
2023/04/02 10:38:54;;;;;;;;;;;;;;;;;;5022915;28;20167;-70
2023/04/02 10:41:20;;;;;;;;;;;;;;;;;;5002231;28;19932;-68
2023/04/02 10:43:45;;;;;;;;;;;;;;;;;;4986406;28;21146;-69
2023/04/02 10:46:13;;;;;;;;;;;;;;;;;;4987578;28;19921;-67
2023/04/02 10:48:38;;;;;;;;;;;;;;;;;;5014314;28;20345;-70
2023/04/02 10:51:09;;;;;;;;;;;;;;;;;;5002311;28;21620;-68
2023/04/02 10:53:34;;;;;;;;;;;;;;;;;;4986273;28;19975;-69
2023/04/02 10:56:04;;;;;;;;;;;;;;;;;;5003596;28;19964;-69
2023/04/02 10:58:30;;;;;;;;;;;;;;;;;;5004321;28;20342;-69
2023/04/02 11:00:58;;;;;;;;;;;;;;;;;;5031350;28;20372;-69
2023/04/02 11:03:23;;;;;;;;;;;;;;;;;;5003365;28;19923;-69
2023/04/02 11:05:48;;;;;;;;;;;;;;;;;;5002988;28;19921;-70
2023/04/02 11:08:13;;;;;;;;;;;;;;;;;;5022917;28;19925;-69
2023/04/02 11:10:39;;;;;;;;;;;;;;;;;;5002201;28;20008;-71
2023/04/02 11:13:05;;;;;;;;;;;;;;;;;;5002128;28;20501;-69
2023/04/02 11:15:30;;;;;;;;;;;;;;;;;;5018944;28;19967;-69
2023/04/02 11:17:56;;;;;;;;;;;;;;;;;;5035105;28;20031;-69
2023/04/02 11:20:21;;;;;;;;;;;;;;;;;;4979781;28;19920;-68
2023/04/02 11:22:47;;;;;;;;;;;;;;;;;;4987101;28;20300;-68
2023/04/02 11:25:57;;;;;;;;;;;;;;;;;;5001728;28;20352;-67
2023/04/02 11:28:01;;;;;;;;;;;;;;;;;;5027381;28;19926;-67
2023/04/02 11:30:26;;;;;;;;;;;;;;;;;;4993362;28;19943;-67
2023/04/02 11:32:58;;;;;;;;;;;;;;;;;;5035332;23;19970;-67
2023/04/02 11:35:26;;;;;;;;;;;;;;;;;;5001175;28;19933;-67
2023/04/02 11:37:54;;;;;;;;;;;;;;;;;;4981837;28;19955;-68
2023/04/02 11:40:22;;;;;;;;;;;;;;;;;;4999480;28;19921;-68
2023/04/02 11:42:52;;;;;;;;;;;;;;;;;;5006824;28;20158;-67
2023/04/02 11:45:17;;;;;;;;;;;;;;;;;;5003263;28;20962;-66
2023/04/02 11:47:43;;;;;;;;;;;;;;;;;;5007697;28;19932;-69
2023/04/02 11:50:08;;;;;;;;;;;;;;;;;;4998990;28;19922;-67
2023/04/02 11:52:36;;;;;;;;;;;;;;;;;;4999939;28;20395;-67
2023/04/02 11:55:02;;;;;;;;;;;;;;;;;;5001753;28;19925;-69
2023/04/02 11:57:30;;;;;;;;;;;;;;;;;;5002695;28;19921;-66
2023/04/02 11:59:55;;;;;;;;;;;;;;;;;;4999983;28;19953;-66
2023/04/02 12:02:21;;;;;;;;;;;;;;;;;;5002188;28;20673;-67
2023/04/02 12:04:46;;;;;;;;;;;;;;;;;;5000789;28;20317;-66
2023/04/02 12:07:16;;;;;;;;;;;;;;;;;;4998498;28;20063;-67
2023/04/02 12:09:41;;;;;;;;;;;;;;;;;;5001189;28;19917;-68
2023/04/02 12:12:07;;;;;;;;;;;;;;;;;;5002314;28;19922;-66
2023/04/02 12:14:35;;;;;;;;;;;;;;;;;;5001248;28;19924;-69
2023/04/02 12:17:00;;;;;;;;;;;;;;;;;;4986824;28;19921;-66
2023/04/02 12:19:29;;;;;;;;;;;;;;;;;;5001707;28;20799;-67
2023/04/02 12:21:58;;;;;;;;;;;;;;;;;;4999103;28;19978;-70
2023/04/02 12:24:29;;;;;;;;;;;;;;;;;;4999225;28;19921;-67
2023/04/02 12:26:56;;;;;;;;;;;;;;;;;;5005798;28;21477;-68
2023/04/02 12:29:25;;;;;;;;;;;;;;;;;;5004578;28;19917;-68
2023/04/02 12:31:50;;;;;;;;;;;;;;;;;;4989697;28;19928;-68
2023/04/02 12:34:16;;;;;;;;;;;;;;;;;;4982277;28;19930;-68
2023/04/02 12:36:41;;;;;;;;;;;;;;;;;;5007089;28;20377;-68
2023/04/02 12:39:22;;;;;;;;;;;;;;;;;;5005879;28;20099;-68
2023/04/02 12:41:48;;;;;;;;;;;;;;;;;;5022885;28;19920;-67
2023/04/02 12:44:17;;;;;;;;;;;;;;;;;;5006450;28;20012;-67
2023/04/02 12:46:42;;;;;;;;;;;;;;;;;;5008286;28;19917;-71
2023/04/02 12:49:08;;;;;;;;;;;;;;;;;;5004380;28;19963;-66
2023/04/02 12:51:34;;;;;;;;;;;;;;;;;;4987991;28;20304;-67
2023/04/02 12:54:00;;;;;;;;;;;;;;;;;;5001962;28;19920;-66
2023/04/02 12:56:28;;;;;;;;;;;;;;;;;;4991920;28;20277;-68
2023/04/02 12:58:56;;;;;;;;;;;;;;;;;;5008072;28;19924;-66
2023/04/02 13:01:27;;;;;;;;;;;;;;;;;;5008360;28;19928;-67
2023/04/02 13:03:52;;;;;;;;;;;;;;;;;;5015963;28;19921;-66
2023/04/02 13:06:21;;;;;;;;;;;;;;;;;;4993616;28;19928;-67
2023/04/02 13:08:46;;;;;;;;;;;;;;;;;;5000128;28;20351;-66
2023/04/02 13:11:12;;;;;;;;;;;;;;;;;;5009047;28;19944;-68
2023/04/02 13:13:37;;;;;;;;;;;;;;;;;;5005666;28;19966;-67
2023/04/02 13:16:02;;;;;;;;;;;;;;;;;;5006182;28;20442;-66
2023/04/02 13:18:28;;;;;;;;;;;;;;;;;;5008534;28;19963;-69
2023/04/02 13:20:53;;;;;;;;;;;;;;;;;;5008128;28;19925;-69
2023/04/02 13:23:22;;;;;;;;;;;;;;;;;;4992689;28;19921;-68
2023/04/02 13:25:48;;;;;;;;;;;;;;;;;;5010874;28;20887;-67
2023/04/02 13:28:13;;;;;;;;;;;;;;;;;;5003970;28;19921;-66
2023/04/02 13:30:41;;;;;;;;;;;;;;;;;;5008001;28;19951;-66
2023/04/02 13:33:07;;;;;;;;;;;;;;;;;;5009149;28;20039;-68
2023/04/02 13:35:32;;;;;;;;;;;;;;;;;;5008370;28;20150;-66
2023/04/02 13:38:01;;;;;;;;;;;;;;;;;;4988846;28;20011;-67
2023/04/02 13:40:26;;;;;;;;;;;;;;;;;;5006639;28;20911;-67
2023/04/02 13:42:52;;;;;;;;;;;;;;;;;;5006857;28;19944;-67
2023/04/02 13:45:17;;;;;;;;;;;;;;;;;;5000280;28;19917;-67
2023/04/02 13:47:43;;;;;;;;;;;;;;;;;;5000765;28;19925;-68
2023/04/02 13:50:11;;;;;;;;;;;;;;;;;;5009441;28;19921;-68
2023/04/02 13:52:39;;;;;;;;;;;;;;;;;;4987030;28;20510;-66
2023/04/02 13:55:09;;;;;;;;;;;;;;;;;;4989050;28;20059;-69
2023/04/02 13:57:36;;;;;;;;;;;;;;;;;;4989353;28;19917;-67
2023/04/02 14:00:02;;;;;;;;;;;;;;;;;;5005110;28;19928;-67
2023/04/02 14:02:27;;;;;;;;;;;;;;;;;;5005301;28;20452;-67
2023/04/02 14:04:56;;;;;;;;;;;;;;;;;;5000590;28;20355;-67
2023/04/02 14:07:25;;;;;;;;;;;;;;;;;;5005232;28;19921;-67
2023/04/02 14:09:51;;;;;;;;;;;;;;;;;;5002018;28;21582;-65
2023/04/02 14:12:17;;;;;;;;;;;;;;;;;;4992519;28;19947;-65
2023/04/02 14:14:42;;;;;;;;;;;;;;;;;;4992148;28;19917;-68
2023/04/02 14:17:08;;;;;;;;;;;;;;;;;;5011061;28;19998;-68
2023/04/02 14:19:33;;;;;;;;;;;;;;;;;;4985926;28;19983;-66
2023/04/02 14:22:02;;;;;;;;;;;;;;;;;;5005512;28;20384;-67
2023/04/02 14:24:28;;;;;;;;;;;;;;;;;;5004691;28;19983;-67
2023/04/02 14:26:53;;;;;;;;;;;;;;;;;;5007877;28;20062;-68
2023/04/02 14:29:18;;;;;;;;;;;;;;;;;;5005020;28;19928;-66
2023/04/02 14:31:44;;;;;;;;;;;;;;;;;;5000916;28;20818;-68
2023/04/02 14:34:09;;;;;;;;;;;;;;;;;;5007699;28;20155;-66
2023/04/02 14:36:35;;;;;;;;;;;;;;;;;;5003632;28;19924;-67
2023/04/02 14:39:01;;;;;;;;;;;;;;;;;;4987416;28;19921;-67
2023/04/02 14:41:27;;;;;;;;;;;;;;;;;;5006360;28;19928;-67
2023/04/02 14:43:53;;;;;;;;;;;;;;;;;;4989297;28;20016;-65
2023/04/02 14:46:18;;;;;;;;;;;;;;;;;;4991233;28;19973;-67
2023/04/02 14:48:44;;;;;;;;;;;;;;;;;;4991647;28;20012;-66
2023/04/02 14:51:12;;;;;;;;;;;;;;;;;;4996991;28;19932;-66
2023/04/02 14:53:38;;;;;;;;;;;;;;;;;;4998453;28;19952;-66
2023/04/02 14:56:03;;;;;;;;;;;;;;;;;;5002084;28;20932;-66
2023/04/02 14:58:28;;;;;;;;;;;;;;;;;;5005493;28;20016;-66
2023/04/02 15:00:54;;;;;;;;;;;;;;;;;;5004316;28;19982;-68
2023/04/02 15:03:20;;;;;;;;;;;;;;;;;;4998453;28;20416;-65
2023/04/02 15:05:45;;;;;;;;;;;;;;;;;;4995328;28;20386;-65
2023/04/02 15:08:13;;;;;;;;;;;;;;;;;;4990645;28;20126;-66
2023/04/02 15:10:39;;;;;;;;;;;;;;;;;;4988190;28;19917;-66
2023/04/02 15:13:04;;;;;;;;;;;;;;;;;;5006426;28;20581;-68
2023/04/02 15:15:31;;;;;;;;;;;;;;;;;;4993643;28;20823;-69
2023/04/02 15:17:57;;;;;;;;;;;;;;;;;;5006383;28;20554;-67
2023/04/02 15:20:22;;;;;;;;;;;;;;;;;;5004843;28;20546;-68
2023/04/02 15:22:48;;;;;;;;;;;;;;;;;;4986622;28;20380;-66
2023/04/02 15:25:13;;;;;;;;;;;;;;;;;;5006726;28;19921;-67
2023/04/02 15:27:38;;;;;;;;;;;;;;;;;;5000777;28;19927;-69
2023/04/02 15:30:04;;;;;;;;;;;;;;;;;;4998953;28;19927;-66
2023/04/02 15:32:29;;;;;;;;;;;;;;;;;;5003126;28;20380;-69
2023/04/02 15:34:55;;;;;;;;;;;;;;;;;;5003719;28;20418;-67
2023/04/02 15:37:20;;;;;;;;;;;;;;;;;;5003640;28;20018;-68
2023/04/02 15:39:46;;;;;;;;;;;;;;;;;;5020804;28;19917;-68
2023/04/02 15:42:11;;;;;;;;;;;;;;;;;;5002073;28;20048;-67
2023/04/02 15:44:37;;;;;;;;;;;;;;;;;;4998934;28;20665;-66
2023/04/02 15:47:02;;;;;;;;;;;;;;;;;;4985917;28;19920;-69
2023/04/02 15:49:30;;;;;;;;;;;;;;;;;;5004985;28;19963;-67
2023/04/02 15:51:56;;;;;;;;;;;;;;;;;;5001424;28;21799;-68
2023/04/02 15:54:21;;;;;;;;;;;;;;;;;;5002492;28;19921;-68
2023/04/02 15:56:47;;;;;;;;;;;;;;;;;;5004312;28;19959;-67
2023/04/02 15:59:12;;;;;;;;;;;;;;;;;;5011669;28;19921;-65
2023/04/02 16:01:40;;;;;;;;;;;;;;;;;;4985605;28;19928;-66
2023/04/02 16:04:06;;;;;;;;;;;;;;;;;;4978523;28;19921;-66
2023/04/02 16:06:31;;;;;;;;;;;;;;;;;;4984972;28;20370;-67
2023/04/02 16:08:57;;;;;;;;;;;;;;;;;;5004263;28;19921;-66
2023/04/02 16:11:22;;;;;;;;;;;;;;;;;;4986460;28;19921;-66
2023/04/02 16:13:48;;;;;;;;;;;;;;;;;;5002114;28;19952;-66
2023/04/02 16:16:13;;;;;;;;;;;;;;;;;;4985384;28;19956;-64
2023/04/02 16:18:39;;;;;;;;;;;;;;;;;;5003325;28;20074;-67
2023/04/02 16:21:05;;;;;;;;;;;;;;;;;;5003298;28;20597;-65
2023/04/02 16:23:30;;;;;;;;;;;;;;;;;;5004900;28;20618;-65
2023/04/02 16:25:58;;;;;;;;;;;;;;;;;;4998574;28;20460;-64
2023/04/02 16:28:24;;;;;;;;;;;;;;;;;;5010619;28;20483;-68
2023/04/02 16:30:50;;;;;;;;;;;;;;;;;;4986458;28;19921;-64
2023/04/02 16:33:15;;;;;;;;;;;;;;;;;;5000468;28;19924;-65
2023/04/02 16:35:43;;;;;;;;;;;;;;;;;;4987226;28;19936;-66
2023/04/02 16:38:10;;;;;;;;;;;;;;;;;;4984977;28;19917;-65
2023/04/02 16:40:36;;;;;;;;;;;;;;;;;;5009453;28;19924;-66
2023/04/02 16:43:04;;;;;;;;;;;;;;;;;;5005025;28;19921;-66
2023/04/02 16:45:30;;;;;;;;;;;;;;;;;;4997563;28;20981;-67